Homestead, Montana
Current Conditions -  °F | °C
As of 4:52 PM on Friday 24 Oct 2014 (Local Time) from KISN Reporting Station
Clear Clear  
Wind Chill: 59°   Ceiling: Unl
Heat Index: 59°   Visibility: 10mi
Dew Point: 26°   Wind: 15mph
Humidity: 28%   Direction: 270°W
Pressure: 29.96"   Gusts: 23mph
Location:  48.42°N, 104.54°W
Report Text: KISN 242252Z AUTO 27013G20KT 10SM CLR 15/M03 A2996 RMK AO2 SLP150 T01501033
Loading
Personal Weather Stations






























Interactive Weather Map
Tropical Storm Tracking
New forecast layout! Learn more

10-Day Weather Forecast

Advertisements
Track Severe Weather on mobile